createdAt,value
2022-11-01T00:04:57.721Z,100757.03
2022-11-01T00:09:59.464Z,100768.38
2022-11-01T00:15:01.183Z,100763.13
2022-11-01T00:20:02.950Z,100754.50
2022-11-01T00:25:05.304Z,100754.53
2022-11-01T00:30:07.264Z,100745.84
2022-11-01T00:35:09.133Z,100729.22
2022-11-01T00:40:11.324Z,100722.19
2022-11-01T00:45:13.111Z,100721.53
2022-11-01T00:50:14.904Z,100716.25
2022-11-01T00:55:16.577Z,100720.63
2022-11-01T01:00:18.277Z,100711.84
2022-11-01T01:05:19.998Z,100687.56
2022-11-01T01:10:21.736Z,100688.25
2022-11-01T01:15:23.430Z,100690.03
2022-11-01T01:20:25.183Z,100703.50
2022-11-01T01:25:26.900Z,100707.78
2022-11-01T01:30:28.619Z,100694.78
2022-11-01T01:35:30.322Z,100690.34
2022-11-01T01:40:32.699Z,100675.50
2022-11-01T01:45:36.550Z,100672.88
2022-11-01T01:50:39.984Z,100660.63
2022-11-01T01:56:09.665Z,100663.34
2022-11-01T02:01:11.484Z,100643.03
2022-11-01T02:06:15.414Z,100634.19
2022-11-01T02:11:17.337Z,100627.28
2022-11-01T02:16:39.576Z,100609.78
2022-11-01T02:21:46.601Z,100618.56
2022-11-01T02:26:57.710Z,100601.06
2022-11-01T02:32:24.123Z,100588.84
2022-11-01T02:37:32.603Z,100591.38
2022-11-01T02:42:37.066Z,100589.75
2022-11-01T02:47:38.800Z,100581.81
2022-11-01T02:52:40.829Z,100580.81
2022-11-01T02:57:42.494Z,100567.69
2022-11-01T03:02:44.425Z,100569.63
2022-11-01T03:07:48.490Z,100566.22
2022-11-01T03:13:05.690Z,100559.09
2022-11-01T03:18:13.302Z,100555.44
2022-11-01T03:23:35.979Z,100557.19
2022-11-01T03:28:45.777Z,100562.38
2022-11-01T03:33:58.170Z,100557.03
2022-11-01T03:39:24.216Z,100551.00
2022-11-01T03:44:25.874Z,100552.91
2022-11-01T03:49:27.495Z,100549.19
2022-11-01T03:54:29.206Z,100556.97
2022-11-01T03:59:30.903Z,100550.13
2022-11-01T04:04:32.486Z,100552.56
2022-11-01T04:09:34.117Z,100553.22
2022-11-01T04:14:54.378Z,100549.78
2022-11-01T04:20:14.590Z,100540.50
2022-11-01T04:25:16.257Z,100540.22
2022-11-01T04:30:20.405Z,100527.03
2022-11-01T04:35:22.366Z,100527.84
2022-11-01T04:40:24.143Z,100519.88
2022-11-01T04:45:25.916Z,100512.88
2022-11-01T04:50:27.721Z,100543.66
2022-11-01T04:55:29.570Z,100536.75
2022-11-01T05:00:33.074Z,100548.22
2022-11-01T05:05:35.129Z,100539.50
2022-11-01T05:10:38.416Z,100516.63
2022-11-01T05:15:53.203Z,100524.69
2022-11-01T05:21:01.667Z,100536.81
2022-11-01T05:26:03.345Z,100539.63
2022-11-01T05:31:05.097Z,100542.97
2022-11-01T05:36:07.449Z,100558.81
2022-11-01T05:41:09.221Z,100559.53
2022-11-01T05:46:10.882Z,100560.50
2022-11-01T05:51:12.532Z,100557.94
2022-11-01T05:56:14.291Z,100556.91
2022-11-01T06:01:17.828Z,100553.63
2022-11-01T06:06:19.597Z,100561.59
2022-11-01T06:11:21.290Z,100563.19
2022-11-01T06:16:23.062Z,100575.44
2022-11-01T06:21:27.648Z,100589.03
2022-11-01T06:26:31.839Z,100588.97
2022-11-01T06:31:33.461Z,100585.75
2022-11-01T06:36:35.079Z,100588.34
2022-11-01T06:41:36.698Z,100591.69
2022-11-01T06:46:38.423Z,100585.47
2022-11-01T06:51:40.083Z,100602.22
2022-11-01T06:56:41.731Z,100593.38
2022-11-01T07:01:44.135Z,100605.47
2022-11-01T07:06:45.969Z,100598.56
2022-11-01T07:11:47.607Z,100598.66
2022-11-01T07:16:49.266Z,100613.25
2022-11-01T07:21:50.879Z,100608.53
2022-11-01T07:26:52.529Z,100623.28
2022-11-01T07:31:54.149Z,100622.66
2022-11-01T07:36:55.795Z,100622.75
2022-11-01T07:41:58.722Z,100639.53
2022-11-01T07:47:00.390Z,100640.34
2022-11-01T07:52:04.157Z,100641.53
2022-11-01T07:57:05.894Z,100655.94
2022-11-01T08:02:09.143Z,100647.91
2022-11-01T08:07:10.828Z,100657.41
2022-11-01T08:12:12.673Z,100649.28
2022-11-01T08:17:14.289Z,100654.34
2022-11-01T08:22:15.927Z,100657.81
2022-11-01T08:27:17.616Z,100653.47
2022-11-01T08:32:21.005Z,100664.94
2022-11-01T08:37:22.678Z,100664.53
2022-11-01T08:42:24.292Z,100668.28
2022-11-01T08:47:25.933Z,100674.22
2022-11-01T08:52:28.052Z,100677.13
2022-11-01T08:57:30.225Z,100684.19
2022-11-01T09:02:31.884Z,100687.44
2022-11-01T09:07:35.999Z,100677.09
2022-11-01T09:12:37.885Z,100690.94
2022-11-01T09:17:39.570Z,100690.34
2022-11-01T09:22:41.310Z,100684.06
2022-11-01T09:27:42.961Z,100687.13
2022-11-01T09:32:44.568Z,100705.56
2022-11-01T09:37:46.219Z,100692.78
2022-11-01T09:42:47.911Z,100696.97
2022-11-01T09:47:53.901Z,100694.59
2022-11-01T09:52:55.778Z,100696.13
2022-11-01T09:58:01.121Z,100703.72
2022-11-01T10:03:16.029Z,100716.78
2022-11-01T10:08:37.853Z,100701.59
2022-11-01T10:13:49.813Z,100715.88
2022-11-01T10:18:57.796Z,100718.13
2022-11-01T10:23:59.922Z,100736.66
2022-11-01T10:29:20.272Z,100742.81
2022-11-01T10:34:41.412Z,100734.63
2022-11-01T10:39:55.612Z,100739.56
2022-11-01T10:45:01.450Z,100741.94
2022-11-01T10:50:12.392Z,100742.22
2022-11-01T10:55:40.043Z,100749.81
2022-11-01T11:00:41.762Z,100760.63
2022-11-01T11:05:43.474Z,100755.81
2022-11-01T11:10:45.456Z,100744.25
2022-11-01T11:15:52.559Z,100745.34
2022-11-01T11:21:08.628Z,100745.06
2022-11-01T11:26:13.412Z,100746.44
2022-11-01T11:31:26.436Z,100741.50
2022-11-01T11:36:31.295Z,100735.19
2022-11-01T11:41:35.201Z,100750.97
2022-11-01T11:46:36.827Z,100756.28
2022-11-01T11:51:38.601Z,100765.38
2022-11-01T11:56:40.226Z,100764.00
2022-11-01T12:01:42.009Z,100759.59
2022-11-01T12:06:44.495Z,100757.19
2022-11-01T12:11:46.175Z,100764.44
2022-11-01T12:16:47.873Z,100783.59
2022-11-01T12:21:49.494Z,100781.41
2022-11-01T12:26:51.865Z,100799.00
2022-11-01T12:31:53.720Z,100813.09
2022-11-01T12:37:32.894Z,100812.03
2022-11-01T12:42:39.647Z,100810.94
2022-11-01T12:47:43.707Z,100829.31
2022-11-01T12:53:03.246Z,100849.22
2022-11-01T12:58:07.638Z,100846.69
2022-11-01T13:03:47.514Z,100846.84
2022-11-01T13:09:14.994Z,100852.13
2022-11-01T13:14:43.539Z,100854.38
2022-11-01T13:20:22.098Z,100856.03
2022-11-01T13:25:49.939Z,100859.38
2022-11-01T13:30:58.316Z,100859.38
2022-11-01T13:36:30.278Z,100866.41
2022-11-01T13:41:57.130Z,100877.13
2022-11-01T13:46:58.683Z,100872.91
2022-11-01T13:52:19.777Z,100885.94
2022-11-01T13:57:22.581Z,100881.72
2022-11-01T14:02:24.411Z,100883.44
2022-11-01T14:07:30.675Z,100885.44
2022-11-01T14:12:37.421Z,100887.25
2022-11-01T14:17:56.623Z,100901.22
2022-11-01T14:22:58.312Z,100906.41
2022-11-01T14:28:20.315Z,100905.59
2022-11-01T14:33:22.451Z,100910.09
2022-11-01T14:38:31.767Z,100919.81
2022-11-01T14:43:41.105Z,100918.41
2022-11-01T14:49:01.437Z,100914.72
2022-11-01T14:54:13.232Z,100922.34
2022-11-01T14:59:20.675Z,100933.84
2022-11-01T15:04:24.077Z,100945.13
2022-11-01T15:09:30.240Z,100937.19
2022-11-01T15:14:35.706Z,100944.03
2022-11-01T15:19:38.006Z,100940.63
2022-11-01T15:24:39.657Z,100948.22
2022-11-01T15:29:42.462Z,100950.91
2022-11-01T15:34:51.428Z,100953.06
2022-11-01T15:39:53.319Z,100946.09
2022-11-01T15:44:55.040Z,100955.31
2022-11-01T15:49:59.220Z,100954.78
2022-11-01T15:55:14.464Z,100965.28
2022-11-01T16:00:20.494Z,100966.28
2022-11-01T16:05:24.793Z,100967.25
2022-11-01T16:10:29.626Z,100967.22
2022-11-01T16:15:32.999Z,100971.31
2022-11-01T16:20:35.483Z,100987.16
2022-11-01T16:25:37.566Z,100988.06
2022-11-01T16:30:47.321Z,100999.47
2022-11-01T16:36:05.006Z,100999.53
2022-11-01T16:41:24.305Z,101004.84
2022-11-01T16:46:27.210Z,101004.75
2022-11-01T16:51:30.158Z,101007.38
2022-11-01T16:56:37.416Z,101007.50
2022-11-01T17:01:39.654Z,101014.53
2022-11-01T17:06:41.429Z,101017.25
2022-11-01T17:11:49.525Z,101021.66
2022-11-01T17:16:52.635Z,101023.34
2022-11-01T17:21:54.336Z,101024.25
2022-11-01T17:26:57.857Z,101021.72
2022-11-01T17:32:00.978Z,101013.88
2022-11-01T17:37:03.175Z,101020.91
2022-11-01T17:42:04.815Z,101029.59
2022-11-01T17:47:06.447Z,101029.56
2022-11-01T17:52:08.124Z,101024.16
2022-11-01T17:57:09.838Z,101014.66
2022-11-01T18:02:11.594Z,101022.31
2022-11-01T18:07:13.827Z,101022.31
2022-11-01T18:12:26.665Z,101031.69
2022-11-01T18:23:14.549Z,101025.50
2022-11-01T18:28:23.118Z,101026.31
2022-11-01T18:34:02.554Z,101030.66
2022-11-01T18:39:32.687Z,101037.53
2022-11-01T18:44:34.333Z,101041.13
2022-11-01T18:49:35.952Z,101042.06
2022-11-01T18:54:38.461Z,101039.47
2022-11-01T18:59:40.379Z,101044.72
2022-11-01T19:04:42.632Z,101034.25
2022-11-01T19:09:58.453Z,101041.19
2022-11-01T19:15:03.696Z,101044.66
2022-11-01T19:20:32.235Z,101040.34
2022-11-01T19:25:35.606Z,101042.97
2022-11-01T19:30:37.294Z,101038.56
2022-11-01T19:35:38.959Z,101048.97
2022-11-01T19:40:41.373Z,101049.78
2022-11-01T19:45:53.550Z,101043.69
2022-11-01T19:50:55.317Z,101056.78
2022-11-01T19:56:02.531Z,101060.31
2022-11-01T20:01:19.906Z,101056.88
2022-11-01T20:06:28.850Z,101062.00
2022-11-01T20:11:32.201Z,101060.31
2022-11-01T20:16:33.852Z,101069.16
2022-11-01T20:21:35.538Z,101076.00
2022-11-01T20:26:37.349Z,101074.31
2022-11-01T20:31:39.041Z,101088.19
2022-11-01T20:36:40.720Z,101095.22
2022-11-01T20:41:42.353Z,101093.94
2022-11-01T20:46:44.042Z,101103.50
2022-11-01T20:51:45.978Z,101103.47
2022-11-01T20:56:47.616Z,101101.91
2022-11-01T21:01:49.392Z,101117.47
2022-11-01T21:06:51.146Z,101108.81
2022-11-01T21:11:52.881Z,101122.63
2022-11-01T21:16:55.682Z,101126.97
2022-11-01T21:21:58.007Z,101123.47
2022-11-01T21:27:23.821Z,101121.59
2022-11-01T21:32:34.504Z,101126.81
2022-11-01T21:37:36.122Z,101125.09
2022-11-01T21:42:38.924Z,101128.34
2022-11-01T21:47:45.422Z,101125.09
2022-11-01T21:52:47.435Z,101115.44
2022-11-01T21:57:49.119Z,101109.56
2022-11-01T22:02:50.752Z,101099.97
2022-11-01T22:07:52.377Z,101103.53
2022-11-01T22:12:54.000Z,101098.16
2022-11-01T22:17:55.689Z,101096.38
2022-11-01T22:22:57.331Z,101092.00
2022-11-01T22:27:58.967Z,101099.13
2022-11-01T22:33:00.842Z,101093.81
2022-11-01T22:38:17.225Z,101089.50
2022-11-01T22:43:18.928Z,101089.38
2022-11-01T22:48:22.315Z,101093.69
2022-11-01T22:53:23.937Z,101085.09
2022-11-01T22:58:28.469Z,101091.94
2022-11-01T23:03:37.574Z,101088.59
2022-11-01T23:08:39.233Z,101085.97
2022-11-01T23:13:59.436Z,101077.13
2022-11-01T23:19:01.841Z,101090.19
2022-11-01T23:24:03.560Z,101086.72
2022-11-01T23:29:05.293Z,101076.25
2022-11-01T23:34:09.467Z,101068.53
2022-11-01T23:39:11.956Z,101063.19
2022-11-01T23:44:19.875Z,101058.84
2022-11-01T23:49:25.647Z,101050.19
2022-11-01T23:54:33.346Z,101048.81
2022-11-01T23:59:34.966Z,101045.22
